createdAt,value
2022-11-28T00:01:05.327Z,5.00
2022-11-28T00:04:07.599Z,5.00
2022-11-28T00:07:11.644Z,5.00
2022-11-28T00:10:13.709Z,5.00
2022-11-28T00:13:15.420Z,5.00
2022-11-28T00:16:21.421Z,5.10
2022-11-28T00:19:24.339Z,5.10
2022-11-28T00:22:27.883Z,5.10
2022-11-28T00:25:29.612Z,5.10
2022-11-28T00:28:31.409Z,5.10
2022-11-28T00:31:36.004Z,5.10
2022-11-28T00:34:37.756Z,5.00
2022-11-28T00:37:39.413Z,5.00
2022-11-28T00:40:41.263Z,5.10
2022-11-28T00:43:44.178Z,5.10
2022-11-28T00:46:46.088Z,5.00
2022-11-28T00:49:47.784Z,5.00
2022-11-28T00:52:50.310Z,5.00
2022-11-28T00:55:52.021Z,5.00
2022-11-28T00:58:57.370Z,5.00
2022-11-28T01:01:59.158Z,5.00
2022-11-28T01:05:01.088Z,4.90
2022-11-28T01:08:02.817Z,5.00
2022-11-28T01:11:10.162Z,5.00
2022-11-28T01:14:12.908Z,4.90
2022-11-28T01:17:14.585Z,4.90
2022-11-28T01:20:16.294Z,4.90
2022-11-28T01:23:19.199Z,4.90
2022-11-28T01:26:24.330Z,4.90
2022-11-28T01:29:25.968Z,4.90
2022-11-28T01:32:27.703Z,4.80
2022-11-28T01:35:29.332Z,4.90
2022-11-28T01:38:31.728Z,4.80
2022-11-28T01:41:33.421Z,4.90
2022-11-28T01:44:35.021Z,4.80
2022-11-28T01:47:36.794Z,4.80
2022-11-28T01:50:38.959Z,4.80
2022-11-28T01:53:45.644Z,4.80
2022-11-28T01:57:04.782Z,4.80
2022-11-28T02:00:10.771Z,4.80
2022-11-28T02:03:20.900Z,4.70
2022-11-28T02:06:27.292Z,4.80
2022-11-28T02:09:28.955Z,4.80
2022-11-28T02:12:44.924Z,4.80
2022-11-28T02:16:10.407Z,4.80
2022-11-28T02:19:36.236Z,4.80
2022-11-28T02:22:59.586Z,4.70
2022-11-28T02:26:16.045Z,4.70
2022-11-28T02:29:45.656Z,4.70
2022-11-28T02:32:59.199Z,4.70
2022-11-28T02:36:19.718Z,4.70
2022-11-28T02:39:47.080Z,4.70
2022-11-28T02:43:06.000Z,4.70
2022-11-28T02:46:13.661Z,4.60
2022-11-28T02:49:23.614Z,4.60
2022-11-28T02:52:48.031Z,4.60
2022-11-28T02:55:51.943Z,4.60
2022-11-28T02:58:53.948Z,4.50
2022-11-28T03:01:55.798Z,4.50
2022-11-28T03:05:26.365Z,4.60
2022-11-28T03:08:52.802Z,4.50
2022-11-28T03:12:13.214Z,4.60
2022-11-28T03:15:19.712Z,4.60
2022-11-28T03:18:28.168Z,4.60
2022-11-28T03:21:36.228Z,4.60
2022-11-28T03:24:45.526Z,4.60
2022-11-28T03:28:14.394Z,4.50
2022-11-28T03:31:21.295Z,4.50
2022-11-28T03:34:28.715Z,4.60
2022-11-28T03:37:35.577Z,4.60
2022-11-28T03:40:42.890Z,4.60
2022-11-28T03:43:49.440Z,4.60
2022-11-28T03:46:52.878Z,4.60
2022-11-28T03:49:57.137Z,4.60
2022-11-28T03:53:03.549Z,4.60
2022-11-28T03:56:36.767Z,4.60
2022-11-28T03:59:50.568Z,4.60
2022-11-28T04:03:10.986Z,4.60
2022-11-28T04:06:29.970Z,4.60
2022-11-28T04:09:43.985Z,4.60
2022-11-28T04:13:11.623Z,4.60
2022-11-28T04:16:21.486Z,4.60
2022-11-28T04:19:30.941Z,4.60
2022-11-28T04:22:42.562Z,4.60
2022-11-28T04:25:53.907Z,4.60
2022-11-28T04:28:58.593Z,4.60
2022-11-28T04:32:02.136Z,4.60
2022-11-28T04:35:12.042Z,4.60
2022-11-28T04:38:14.655Z,4.60
2022-11-28T04:41:22.639Z,4.60
2022-11-28T04:44:41.790Z,4.60
2022-11-28T04:47:44.905Z,4.50
2022-11-28T04:50:50.063Z,4.50
2022-11-28T04:54:04.630Z,4.50
2022-11-28T04:57:17.899Z,4.50
2022-11-28T05:00:21.714Z,4.50
2022-11-28T05:03:28.506Z,4.60
2022-11-28T05:06:35.953Z,4.50
2022-11-28T05:09:38.425Z,4.60
2022-11-28T05:12:40.233Z,4.50
2022-11-28T05:15:41.909Z,4.60
2022-11-28T05:18:44.031Z,4.60
2022-11-28T05:21:45.755Z,4.60
2022-11-28T05:24:47.462Z,4.50
2022-11-28T05:27:49.078Z,4.50
2022-11-28T05:31:02.020Z,4.50
2022-11-28T05:34:04.125Z,4.50
2022-11-28T05:37:06.075Z,4.50
2022-11-28T05:40:08.276Z,4.40
2022-11-28T05:43:13.422Z,4.40
2022-11-28T05:46:15.188Z,4.40
2022-11-28T05:49:17.005Z,4.40
2022-11-28T05:52:21.258Z,4.40
2022-11-28T05:55:22.911Z,4.30
2022-11-28T05:58:24.576Z,4.40
2022-11-28T06:01:28.442Z,4.40
2022-11-28T06:04:30.155Z,4.40
2022-11-28T06:07:31.939Z,4.40
2022-11-28T06:10:35.042Z,4.50
2022-11-28T06:13:37.024Z,4.50
2022-11-28T06:17:06.887Z,4.50
2022-11-28T06:20:08.881Z,4.60
2022-11-28T06:23:10.550Z,4.60
2022-11-28T06:26:15.528Z,4.60
2022-11-28T06:29:17.187Z,4.60
2022-11-28T06:32:22.029Z,4.60
2022-11-28T06:35:23.990Z,4.60
2022-11-28T06:38:25.639Z,4.60
2022-11-28T06:41:27.281Z,4.60
2022-11-28T06:44:29.028Z,4.60
2022-11-28T06:47:30.962Z,4.60
2022-11-28T06:50:32.661Z,4.60
2022-11-28T06:53:37.875Z,4.70
2022-11-28T06:56:41.578Z,4.60
2022-11-28T06:59:43.527Z,4.70
2022-11-28T07:02:45.413Z,4.70
2022-11-28T07:05:47.122Z,4.60
2022-11-28T07:08:49.074Z,4.70
2022-11-28T07:11:50.788Z,4.70
2022-11-28T07:14:52.486Z,4.70
2022-11-28T07:17:54.646Z,4.70
2022-11-28T07:20:56.611Z,4.70
2022-11-28T07:23:59.836Z,4.70
2022-11-28T07:27:01.627Z,4.70
2022-11-28T07:30:03.499Z,4.70
2022-11-28T07:33:05.181Z,4.70
2022-11-28T07:36:11.182Z,4.60
2022-11-28T07:39:17.571Z,4.70
2022-11-28T07:42:19.331Z,4.70
2022-11-28T07:45:20.974Z,4.70
2022-11-28T07:48:22.687Z,4.70
2022-11-28T07:51:29.949Z,4.80
2022-11-28T07:54:31.619Z,4.80
2022-11-28T07:57:33.259Z,4.80
2022-11-28T08:00:35.086Z,4.80
2022-11-28T08:03:36.897Z,4.80
2022-11-28T08:06:41.671Z,4.80
2022-11-28T08:09:43.519Z,4.80
2022-11-28T08:12:45.664Z,4.70
2022-11-28T08:15:47.347Z,4.70
2022-11-28T08:18:50.567Z,4.70
2022-11-28T08:21:52.313Z,4.70
2022-11-28T08:24:53.960Z,4.70
2022-11-28T08:27:55.655Z,4.70
2022-11-28T08:30:58.007Z,4.70
2022-11-28T08:34:01.777Z,4.70
2022-11-28T08:37:09.503Z,4.70
2022-11-28T08:40:11.549Z,4.70
2022-11-28T08:43:13.284Z,4.70
2022-11-28T08:46:20.378Z,4.70
2022-11-28T08:49:22.201Z,4.80
2022-11-28T08:52:24.837Z,4.80
2022-11-28T08:55:32.377Z,4.80
2022-11-28T08:58:37.497Z,4.80
2022-11-28T09:01:40.362Z,4.90
2022-11-28T09:04:42.304Z,4.90
2022-11-28T09:07:44.020Z,4.90
2022-11-28T09:10:49.267Z,4.90
2022-11-28T09:13:51.496Z,4.90
2022-11-28T09:16:53.338Z,5.00
2022-11-28T09:19:57.782Z,5.00
2022-11-28T09:23:00.365Z,5.00
2022-11-28T09:26:07.400Z,5.00
2022-11-28T09:29:09.132Z,5.10
2022-11-28T09:32:10.855Z,5.10
2022-11-28T09:35:12.480Z,5.20
2022-11-28T09:38:14.129Z,5.20
2022-11-28T09:41:42.273Z,5.20
2022-11-28T09:44:55.983Z,5.20
2022-11-28T09:48:24.709Z,5.20
2022-11-28T09:51:48.670Z,5.30
2022-11-28T09:55:18.528Z,5.30
2022-11-28T09:58:28.939Z,5.30
2022-11-28T10:01:42.916Z,5.30
2022-11-28T10:05:04.701Z,5.30
2022-11-28T10:08:30.367Z,5.30
2022-11-28T10:12:03.084Z,5.30
2022-11-28T10:15:07.840Z,5.40
2022-11-28T10:18:23.322Z,5.40
2022-11-28T10:21:43.247Z,5.40
2022-11-28T10:24:57.910Z,5.50
2022-11-28T10:27:59.596Z,5.40
2022-11-28T10:31:36.348Z,5.50
2022-11-28T10:34:45.342Z,5.50
2022-11-28T10:37:47.437Z,5.60
2022-11-28T10:41:16.348Z,5.60
2022-11-28T10:44:35.917Z,5.60
2022-11-28T10:48:07.511Z,5.70
2022-11-28T10:51:34.412Z,5.70
2022-11-28T10:54:41.800Z,5.60
2022-11-28T10:58:05.729Z,5.70
2022-11-28T11:01:07.567Z,5.80
2022-11-28T11:04:23.802Z,5.80
2022-11-28T11:07:30.218Z,5.80
2022-11-28T11:10:34.786Z,5.80
2022-11-28T11:14:05.050Z,5.80
2022-11-28T11:17:07.168Z,5.90
2022-11-28T11:20:29.308Z,5.80
2022-11-28T11:23:36.724Z,5.80
2022-11-28T11:26:43.759Z,5.90
2022-11-28T11:30:17.006Z,5.90
2022-11-28T11:33:20.657Z,5.80
2022-11-28T11:36:31.822Z,5.90
2022-11-28T11:39:33.508Z,5.80
2022-11-28T11:42:35.110Z,5.80
2022-11-28T11:45:37.180Z,5.80
2022-11-28T11:48:41.650Z,5.90
2022-11-28T11:51:43.329Z,5.90
2022-11-28T11:54:57.191Z,5.90
2022-11-28T11:58:05.653Z,5.90
2022-11-28T12:01:08.750Z,5.90
2022-11-28T12:04:43.584Z,5.80
2022-11-28T12:07:56.718Z,5.90
2022-11-28T12:11:26.155Z,5.90
2022-11-28T12:14:31.765Z,5.90
2022-11-28T12:18:07.470Z,5.90
2022-11-28T12:21:37.371Z,6.00
2022-11-28T12:24:57.923Z,6.00
2022-11-28T12:28:20.745Z,6.00
2022-11-28T12:31:29.355Z,6.00
2022-11-28T12:35:02.294Z,6.10
2022-11-28T12:38:31.169Z,6.10
2022-11-28T12:42:05.509Z,6.10
2022-11-28T12:45:25.644Z,6.20
2022-11-28T12:48:58.511Z,6.20
2022-11-28T12:52:33.975Z,6.20
2022-11-28T12:55:54.137Z,6.30
2022-11-28T12:59:05.862Z,6.30
2022-11-28T13:02:32.314Z,6.30
2022-11-28T13:05:46.196Z,6.30
2022-11-28T13:09:05.249Z,6.30
2022-11-28T13:12:25.788Z,6.40
2022-11-28T13:16:11.454Z,6.30
2022-11-28T13:19:15.927Z,6.30
2022-11-28T13:22:24.738Z,6.30
2022-11-28T13:25:50.849Z,6.30
2022-11-28T13:29:13.769Z,6.30
2022-11-28T13:32:43.872Z,6.30
2022-11-28T13:35:49.871Z,6.30
2022-11-28T13:39:12.504Z,6.30
2022-11-28T13:46:03.397Z,6.30
2022-11-28T13:49:21.517Z,6.30
2022-11-28T13:52:43.608Z,6.30
2022-11-28T13:55:49.190Z,6.40
2022-11-28T13:59:00.749Z,6.40
2022-11-28T14:02:16.371Z,6.30
2022-11-28T14:05:35.752Z,6.30
2022-11-28T14:08:41.358Z,6.30
2022-11-28T14:12:13.556Z,6.30
2022-11-28T14:15:56.102Z,6.30
2022-11-28T14:19:03.802Z,6.30
2022-11-28T14:22:50.463Z,6.30
2022-11-28T14:25:53.851Z,6.30
2022-11-28T14:28:55.781Z,6.30
2022-11-28T14:32:28.365Z,6.20
2022-11-28T14:35:51.063Z,6.30
2022-11-28T14:39:12.029Z,6.30
2022-11-28T14:42:30.633Z,6.20
2022-11-28T14:45:45.202Z,6.20
2022-11-28T14:49:23.280Z,6.20
2022-11-28T14:52:41.159Z,6.20
2022-11-28T14:55:43.238Z,6.20
2022-11-28T14:58:52.350Z,6.10
2022-11-28T15:02:12.164Z,6.10
2022-11-28T15:05:36.415Z,6.10
2022-11-28T15:08:57.203Z,6.10
2022-11-28T15:12:01.610Z,6.10
2022-11-28T15:15:07.887Z,6.10
2022-11-28T15:18:11.306Z,6.10
2022-11-28T15:21:15.599Z,6.10
2022-11-28T15:24:32.970Z,6.20
2022-11-28T15:27:34.691Z,6.10
2022-11-28T15:30:45.118Z,6.10
2022-11-28T15:33:46.977Z,6.10
2022-11-28T15:36:52.484Z,6.10
2022-11-28T15:39:54.357Z,6.10
2022-11-28T15:42:56.138Z,6.10
2022-11-28T15:46:00.625Z,6.10
2022-11-28T15:49:05.252Z,6.10
2022-11-28T15:55:33.916Z,6.10
2022-11-28T15:58:36.294Z,6.20
2022-11-28T16:01:38.206Z,6.20
2022-11-28T16:04:40.435Z,6.10
2022-11-28T16:07:43.925Z,6.10
2022-11-28T16:10:48.500Z,6.10
2022-11-28T16:14:10.473Z,6.10
2022-11-28T16:17:22.352Z,6.10
2022-11-28T16:20:33.451Z,6.10
2022-11-28T16:23:37.604Z,6.10
2022-11-28T16:26:39.200Z,6.10
2022-11-28T16:29:45.376Z,6.10
2022-11-28T16:32:47.188Z,6.10
2022-11-28T16:35:49.015Z,6.10
2022-11-28T16:39:12.815Z,6.20
2022-11-28T16:42:20.037Z,6.20
2022-11-28T16:45:32.467Z,6.10
2022-11-28T16:48:36.223Z,6.10
2022-11-28T16:51:40.177Z,6.10
2022-11-28T16:54:41.808Z,6.10
2022-11-28T16:57:47.486Z,6.10
2022-11-28T17:00:59.205Z,6.10
2022-11-28T17:04:00.927Z,6.10
2022-11-28T17:07:05.309Z,6.10
2022-11-28T17:10:07.493Z,6.10
2022-11-28T17:13:10.846Z,6.20
2022-11-28T17:16:21.149Z,6.10
2022-11-28T17:19:23.260Z,6.10
2022-11-28T17:22:37.476Z,6.10
2022-11-28T17:25:42.301Z,6.10
2022-11-28T17:28:44.004Z,6.10
2022-11-28T17:31:47.388Z,6.10
2022-11-28T17:34:49.251Z,6.10
2022-11-28T17:37:50.941Z,6.10
2022-11-28T17:40:52.695Z,6.20
2022-11-28T17:43:54.429Z,6.20
2022-11-28T17:46:57.608Z,6.20
2022-11-28T17:49:59.328Z,6.20
2022-11-28T17:53:00.973Z,6.20
2022-11-28T17:56:02.768Z,6.20
2022-11-28T17:59:07.561Z,6.10
2022-11-28T18:02:10.915Z,6.10
2022-11-28T18:05:12.659Z,6.10
2022-11-28T18:08:38.034Z,6.10
2022-11-28T18:11:41.171Z,6.10
2022-11-28T18:14:42.809Z,6.20
2022-11-28T18:17:45.077Z,6.20
2022-11-28T18:20:46.872Z,6.20
2022-11-28T18:23:50.387Z,6.20
2022-11-28T18:26:52.157Z,6.20
2022-11-28T18:29:53.795Z,6.20
2022-11-28T18:32:58.203Z,6.20
2022-11-28T18:36:12.134Z,6.20
2022-11-28T18:39:15.480Z,6.20
2022-11-28T18:42:17.978Z,6.20
2022-11-28T18:45:19.594Z,6.20
2022-11-28T18:48:21.224Z,6.30
2022-11-28T18:51:24.589Z,6.30
2022-11-28T18:54:26.492Z,6.20
2022-11-28T18:57:32.534Z,6.20
2022-11-28T19:00:34.195Z,6.20
2022-11-28T19:03:36.954Z,6.20
2022-11-28T19:06:40.082Z,6.20
2022-11-28T19:09:44.159Z,6.20
2022-11-28T19:12:46.952Z,6.20
2022-11-28T19:15:48.648Z,6.20
2022-11-28T19:18:50.821Z,6.30
2022-11-28T19:21:52.560Z,6.30
2022-11-28T19:24:54.677Z,6.30
2022-11-28T19:27:56.290Z,6.30
2022-11-28T19:31:20.974Z,6.30
2022-11-28T19:34:22.799Z,6.30
2022-11-28T19:37:24.528Z,6.20
2022-11-28T19:40:26.169Z,6.20
2022-11-28T19:43:27.829Z,6.20
2022-11-28T19:46:35.017Z,6.20
2022-11-28T19:49:38.159Z,6.20
2022-11-28T19:52:40.514Z,6.20
2022-11-28T19:55:42.780Z,6.10
2022-11-28T19:58:45.226Z,6.10
2022-11-28T20:01:49.656Z,6.10
2022-11-28T20:04:51.382Z,6.00
2022-11-28T20:07:58.158Z,6.00
2022-11-28T20:11:07.507Z,6.10
2022-11-28T20:14:17.835Z,6.10
2022-11-28T20:17:19.418Z,6.10
2022-11-28T20:20:21.741Z,6.10
2022-11-28T20:23:23.439Z,6.10
2022-11-28T20:26:26.814Z,6.10
2022-11-28T20:29:28.557Z,6.10
2022-11-28T20:32:30.186Z,6.10
2022-11-28T20:35:31.916Z,6.10
2022-11-28T20:38:33.825Z,6.10
2022-11-28T20:41:35.520Z,6.10
2022-11-28T20:44:37.289Z,6.10
2022-11-28T20:47:38.971Z,6.10
2022-11-28T20:50:43.519Z,6.10
2022-11-28T20:53:45.478Z,6.10
2022-11-28T21:00:09.812Z,6.10
2022-11-28T21:03:11.489Z,6.10
2022-11-28T21:06:13.167Z,6.10
2022-11-28T21:09:15.775Z,6.10
2022-11-28T21:12:20.925Z,6.10
2022-11-28T21:15:25.206Z,6.00
2022-11-28T21:18:26.974Z,6.10
2022-11-28T21:21:31.952Z,6.10
2022-11-28T21:24:33.609Z,6.10
2022-11-28T21:27:35.670Z,6.00
2022-11-28T21:30:46.178Z,6.00
2022-11-28T21:33:49.164Z,6.00
2022-11-28T21:36:55.997Z,6.00
2022-11-28T21:39:57.656Z,6.00
2022-11-28T21:42:59.339Z,5.90
2022-11-28T21:46:07.669Z,5.90
2022-11-28T21:49:09.501Z,5.90
2022-11-28T21:52:12.162Z,5.90
2022-11-28T21:55:13.891Z,5.90
2022-11-28T21:58:15.576Z,5.80
2022-11-28T22:01:17.987Z,5.80
2022-11-28T22:04:21.871Z,5.80
2022-11-28T22:07:26.440Z,5.70
2022-11-28T22:10:28.286Z,5.70
2022-11-28T22:13:31.029Z,5.70
2022-11-28T22:16:32.769Z,5.80
2022-11-28T22:19:34.476Z,5.80
2022-11-28T22:22:36.074Z,5.80
2022-11-28T22:25:37.781Z,5.80
2022-11-28T22:28:41.487Z,5.80
2022-11-28T22:31:43.260Z,5.80
2022-11-28T22:34:45.387Z,5.80
2022-11-28T22:37:47.379Z,5.80
2022-11-28T22:40:49.102Z,5.80
2022-11-28T22:43:50.789Z,5.80
2022-11-28T22:46:52.515Z,5.80
2022-11-28T22:49:54.138Z,5.80
2022-11-28T22:52:55.839Z,5.80
2022-11-28T22:56:03.006Z,5.80
2022-11-28T22:59:05.066Z,5.90
2022-11-28T23:02:06.988Z,5.90
2022-11-28T23:05:09.033Z,5.90
2022-11-28T23:08:10.788Z,5.80
2022-11-28T23:11:18.386Z,5.80
2022-11-28T23:14:20.073Z,5.90
2022-11-28T23:17:21.808Z,5.80
2022-11-28T23:20:26.222Z,5.80
2022-11-28T23:23:27.850Z,5.80
2022-11-28T23:26:31.123Z,5.80
2022-11-28T23:29:32.846Z,5.90
2022-11-28T23:32:34.489Z,5.90
2022-11-28T23:35:36.143Z,5.90
2022-11-28T23:38:37.760Z,5.90
2022-11-28T23:41:39.600Z,5.90
2022-11-28T23:44:41.362Z,5.90
2022-11-28T23:47:43.202Z,5.90
2022-11-28T23:50:44.929Z,5.90
2022-11-28T23:53:47.144Z,5.80
2022-11-28T23:56:48.811Z,5.80
2022-11-28T23:59:50.447Z,5.80
